Time;durP1;ratioP1;P1;durP2;ratioP2;P2;SDS_P1;SDS_P2;PMS_P1;PMS_P2;Temp;Humidity;BMP_temperature;BMP_pressure;BME280_temperature;BME280_humidity;BME280_pressure;Samples;Min_cycle;Max_cycle;Signal;HPM_P1;HPM_P2
2021/05/27 00:01:19;;;;;;;3.68;0.70;;;;;;;11.58;67.62;99885.50;125456;1105;22757;-54
2021/05/27 00:03:49;;;;;;;3.03;0.80;;;;;;;11.58;67.77;99872.30;125581;1104;22771;-58
2021/05/27 00:06:20;;;;;;;2.40;0.50;;;;;;;11.58;67.74;99861.11;125492;1100;26254;-57
2021/05/27 00:08:50;;;;;;;6.15;0.70;;;;;;;11.57;67.80;99867.95;125498;1104;22776;-53
2021/05/27 00:11:20;;;;;;;2.73;0.70;;;;;;;11.59;67.65;99871.02;125472;1104;22855;-55
2021/05/27 00:13:53;;;;;;;3.50;0.70;;;;;;;11.59;67.66;99868.22;125460;1099;28423;-56
2021/05/27 00:16:23;;;;;;;2.45;0.60;;;;;;;11.60;67.63;99872.56;125494;1099;24486;-54
2021/05/27 00:18:53;;;;;;;5.63;0.63;;;;;;;11.62;67.66;99872.84;125516;1104;24397;-57
2021/05/27 00:21:23;;;;;;;4.15;0.78;;;;;;;11.64;67.72;99863.94;125449;1098;25820;-58
2021/05/27 00:23:53;;;;;;;3.55;0.58;;;;;;;11.65;67.74;99866.23;125611;1104;22812;-56
2021/05/27 00:26:23;;;;;;;2.98;0.43;;;;;;;11.65;67.53;99852.25;125763;1104;22809;-57
2021/05/27 00:28:53;;;;;;;2.98;0.50;;;;;;;11.66;67.67;99859.42;125567;1104;22784;-58
2021/05/27 00:31:23;;;;;;;1.93;0.40;;;;;;;11.68;67.58;99861.72;125510;1096;22748;-57
2021/05/27 00:33:53;;;;;;;5.10;0.50;;;;;;;11.68;67.66;99868.09;125516;1097;22789;-57
2021/05/27 00:36:23;;;;;;;5.98;0.63;;;;;;;11.70;67.66;99865.56;125657;1097;26219;-57
2021/05/27 00:38:54;;;;;;;2.43;0.50;;;;;;;11.72;67.85;99867.85;125791;1096;24466;-58
2021/05/27 00:41:25;;;;;;;3.95;0.60;;;;;;;11.73;67.22;99866.60;125542;1098;22780;-55
2021/05/27 00:43:59;;;;;;;1.70;0.50;;;;;;;11.75;67.61;99873.21;125592;1104;22751;-55
2021/05/27 00:46:29;;;;;;;3.25;0.50;;;;;;;11.77;67.20;99870.69;125769;1105;22822;-55
2021/05/27 00:48:59;;;;;;;2.75;0.50;;;;;;;11.80;67.56;99885.71;125484;1104;22778;-57
2021/05/27 00:51:30;;;;;;;1.77;0.40;;;;;;;11.81;67.67;99887.27;125600;1098;25852;-58
2021/05/27 00:54:03;;;;;;;3.10;0.47;;;;;;;11.81;67.54;99888.03;125549;1104;22766;-56
2021/05/27 00:56:33;;;;;;;1.60;0.40;;;;;;;11.84;67.52;99886.25;125730;1097;22774;-56
2021/05/27 00:59:04;;;;;;;1.68;0.48;;;;;;;11.85;67.38;99885.00;125434;1097;22775;-59
2021/05/27 01:01:34;;;;;;;1.53;0.43;;;;;;;11.86;67.16;99889.32;125492;1104;22772;-57
2021/05/27 01:04:03;;;;;;;;;;;;;;;11.87;67.37;99900.03;125557;1097;27788;-59
2021/05/27 01:06:34;;;;;;;2.47;0.40;;;;;;;11.86;67.18;99898.48;125734;1099;24511;-59
2021/05/27 01:09:04;;;;;;;;;;;;;;;11.85;67.38;99894.17;125585;1104;22754;-57
2021/05/27 01:11:36;;;;;;;2.33;0.50;;;;;;;11.85;67.24;99894.17;125601;1104;21551;-55
2021/05/27 01:15:25;;;;;;;3.57;0.70;;;;;;;11.85;67.12;99890.59;125514;1104;25264;-55
2021/05/27 01:17:08;;;;;;;4.65;0.60;;;;;;;11.84;67.52;99892.63;125504;1104;22747;-54
2021/05/27 01:19:38;;;;;;;2.90;0.50;;;;;;;11.84;67.32;99894.64;125596;1097;26236;-53
2021/05/27 01:22:07;;;;;;;4.13;0.60;;;;;;;11.82;67.28;99886.76;125505;1104;22781;-55
2021/05/27 01:24:39;;;;;;;2.30;0.50;;;;;;;11.81;67.20;99902.02;125594;1104;22886;-58
2021/05/27 01:27:09;;;;;;;3.47;0.50;;;;;;;11.80;67.11;99903.27;125566;1104;22825;-56
2021/05/27 01:29:39;;;;;;;1.63;0.45;;;;;;;11.79;67.16;99909.36;125490;1097;22744;-55
2021/05/27 01:32:09;;;;;;;3.50;0.50;;;;;;;11.78;67.28;99916.20;125458;1104;22736;-56
2021/05/27 01:34:39;;;;;;;1.50;0.40;;;;;;;11.77;67.43;99923.82;125655;1097;28256;-55
2021/05/27 01:37:09;;;;;;;7.87;1.00;;;;;;;11.76;67.19;99930.69;125504;1096;27584;-57
2021/05/27 01:39:43;;;;;;;1.58;0.50;;;;;;;11.75;67.38;99931.19;125640;1099;28793;-57
2021/05/27 01:42:14;;;;;;;1.93;0.37;;;;;;;11.74;67.33;99936.02;125535;1097;27594;-56
2021/05/27 01:44:44;;;;;;;2.03;0.50;;;;;;;11.73;67.43;99940.05;125501;1104;22832;-56
2021/05/27 01:47:13;;;;;;;;;;;;;;;11.72;67.46;99949.72;125522;1104;22830;-56
2021/05/27 01:49:43;;;;;;;4.80;0.60;;;;;;;11.72;67.34;99955.31;125555;1104;21467;-55
2021/05/27 01:52:13;;;;;;;2.20;0.50;;;;;;;11.72;67.55;99963.70;125578;1097;22737;-56
2021/05/27 01:54:44;;;;;;;2.40;0.50;;;;;;;11.71;67.81;99964.95;125527;1097;22744;-56
2021/05/27 01:57:13;;;;;;;;;;;;;;;11.71;67.74;99962.16;125518;1097;25817;-54
2021/05/27 01:59:43;;;;;;;4.27;0.60;;;;;;;11.70;68.03;99971.82;125475;1104;21474;-55
2021/05/27 02:02:14;;;;;;;4.60;0.60;;;;;;;11.70;67.66;99962.66;125470;1104;22737;-55
2021/05/27 02:04:42;;;;;;;;;;;;;;;11.71;67.80;99980.98;125622;1097;27147;-53
2021/05/27 02:07:14;;;;;;;4.43;0.33;;;;;;;11.70;67.61;99974.62;125448;1097;21471;-58
2021/05/27 02:09:44;;;;;;;1.07;0.27;;;;;;;11.70;67.35;99977.41;125616;1104;23178;-54
2021/05/27 02:12:15;;;;;;;3.28;0.45;;;;;;;11.71;67.05;99970.55;125713;1104;22734;-56
2021/05/27 02:14:45;;;;;;;2.10;0.40;;;;;;;11.72;66.79;99979.70;125505;1104;22907;-53
2021/05/27 02:17:15;;;;;;;2.35;0.30;;;;;;;11.71;66.96;99976.14;125563;1104;22774;-57
2021/05/27 02:19:46;;;;;;;1.60;0.30;;;;;;;11.72;66.56;99988.09;125508;1099;27830;-57
2021/05/27 02:22:17;;;;;;;1.33;0.33;;;;;;;11.70;66.60;99987.83;125469;1104;22741;-52
2021/05/27 02:24:47;;;;;;;2.47;0.40;;;;;;;11.69;66.59;99998.23;125501;1104;22781;-56
2021/05/27 02:27:17;;;;;;;3.65;0.20;;;;;;;11.69;66.76;99989.09;125532;1104;22754;-55
2021/05/27 02:29:48;;;;;;;2.38;0.50;;;;;;;11.68;67.14;99998.73;125530;1104;22811;-57
2021/05/27 02:32:18;;;;;;;1.10;0.30;;;;;;;11.66;67.77;99993.64;125516;1098;26207;-56
2021/05/27 02:34:49;;;;;;;2.63;0.40;;;;;;;11.63;67.39;100002.97;125519;1104;22726;-57
2021/05/27 02:37:18;;;;;;;;;;;;;;;11.57;67.54;99996.55;125559;1104;22751;-54
2021/05/27 02:39:49;;;;;;;2.48;0.35;;;;;;;11.51;67.53;99995.73;125528;1104;21544;-53
2021/05/27 02:42:20;;;;;;;0.90;0.30;;;;;;;11.47;67.36;99999.98;125537;1099;25894;-54
2021/05/27 02:44:52;;;;;;;3.20;0.40;;;;;;;11.42;67.18;100003.50;125752;1104;22732;-56
2021/05/27 02:47:20;;;;;;;;;;;;;;;11.35;67.41;100007.48;125451;1104;24604;-56
2021/05/27 02:49:50;;;;;;;2.80;0.30;;;;;;;11.29;67.09;100012.24;125495;1100;25753;-54
2021/05/27 02:52:20;;;;;;;1.73;0.20;;;;;;;11.22;67.40;100012.65;125688;1104;23193;-55
2021/05/27 02:54:51;;;;;;;1.17;0.20;;;;;;;11.15;67.24;100021.47;125536;1104;22812;-56
2021/05/27 02:57:20;;;;;;;;;;;;;;;11.07;67.40;100029.47;125985;1099;27163;-56
2021/05/27 02:59:50;;;;;;;1.07;0.20;;;;;;;10.98;67.38;100031.64;125684;1100;24214;-52
2021/05/27 03:02:19;;;;;;;4.75;0.10;;;;;;;10.89;67.38;100026.95;125507;1099;25868;-53
2021/05/27 03:04:49;;;;;;;0.65;0.20;;;;;;;10.83;67.52;100028.11;125503;1097;22747;-54
2021/05/27 03:07:19;;;;;;;0.90;0.18;;;;;;;10.77;67.46;100032.85;125459;1099;25922;-56
2021/05/27 03:09:48;;;;;;;;;;;;;;;10.69;67.61;100037.30;125529;1097;26229;-55
2021/05/27 03:12:18;;;;;;;0.63;0.30;;;;;;;10.61;67.54;100039.73;125435;1104;24186;-52
2021/05/27 03:14:48;;;;;;;2.23;0.20;;;;;;;10.56;67.62;100045.98;125454;1100;22751;-54
2021/05/27 03:17:18;;;;;;;0.70;0.10;;;;;;;10.51;67.67;100058.59;125441;1105;24404;-56
2021/05/27 03:19:48;;;;;;;0.40;0.10;;;;;;;10.47;67.94;100052.45;125485;1104;22771;-58
2021/05/27 03:22:19;;;;;;;1.30;0.20;;;;;;;10.43;68.02;100056.68;125443;1104;22764;-55
2021/05/27 03:24:50;;;;;;;0.80;0.20;;;;;;;10.37;68.04;100056.59;125510;1104;22758;-54
2021/05/27 03:27:20;;;;;;;0.50;0.10;;;;;;;10.35;68.02;100055.53;125469;1104;22910;-57
2021/05/27 03:29:50;;;;;;;0.85;0.10;;;;;;;10.33;67.93;100058.81;125495;1105;22749;-56
2021/05/27 03:32:20;;;;;;;1.07;0.20;;;;;;;10.30;68.08;100065.38;125420;1104;22767;-56
2021/05/27 03:34:49;;;;;;;;;;;;;;;10.27;68.29;100066.31;125532;1097;27151;-56
2021/05/27 03:37:19;;;;;;;0.60;0.10;;;;;;;10.23;68.21;100074.11;125362;1104;22317;-53
2021/05/27 03:42:37;;;;;;;2.03;0.10;;;;;;;10.18;68.34;100083.14;125485;1104;22842;-57
2021/05/27 03:45:11;;;;;;;3.15;0.40;;;;;;;10.15;68.41;100075.75;125476;1099;28618;-55
2021/05/27 03:47:41;;;;;;;0.67;0.20;;;;;;;10.14;68.23;100076.98;125687;1104;22781;-54
2021/05/27 03:50:13;;;;;;;1.13;0.30;;;;;;;10.09;68.40;100086.01;125552;1099;22771;-55
2021/05/27 03:52:46;;;;;;;1.90;0.23;;;;;;;10.06;68.65;100086.95;125629;1104;22742;-52
2021/05/27 03:55:18;;;;;;;1.37;0.20;;;;;;;10.03;68.74;100084.36;125733;1104;22747;-54
2021/05/27 03:57:51;;;;;;;1.83;0.30;;;;;;;10.01;68.75;100078.49;125609;1104;22746;-56
2021/05/27 04:00:45;;;;;;;1.80;0.30;;;;;;;9.99;68.78;100087.34;125504;1104;22841;-56
2021/05/27 04:03:15;;;;;;;1.67;0.20;;;;;;;9.97;68.98;100089.84;125655;1097;26079;-56
2021/05/27 04:08:35;;;;;;;1.93;0.20;;;;;;;9.94;68.64;100085.21;125473;1104;22770;-53
2021/05/27 04:11:05;;;;;;;3.73;0.20;;;;;;;9.93;68.74;100094.81;125633;1104;24407;-54
2021/05/27 04:13:35;;;;;;;4.13;0.20;;;;;;;9.93;68.85;100094.06;125741;1097;28317;-62
2021/05/27 04:16:07;;;;;;;0.58;0.20;;;;;;;9.93;68.92;100096.85;125430;1104;22806;-56
2021/05/27 04:18:36;;;;;;;1.40;0.20;;;;;;;9.93;68.89;100096.85;125654;1097;22745;-56
2021/05/27 04:21:07;;;;;;;0.90;0.20;;;;;;;9.91;68.92;100091.73;125500;1104;22735;-56
2021/05/27 04:23:37;;;;;;;1.10;0.30;;;;;;;9.91;68.99;100097.31;125535;1104;22764;-56
2021/05/27 04:26:08;;;;;;;1.68;0.33;;;;;;;9.93;69.14;100092.02;125447;1100;24450;-58
2021/05/27 04:28:40;;;;;;;0.90;0.30;;;;;;;9.98;69.13;100098.95;125542;1104;22737;-56
2021/05/27 04:31:13;;;;;;;2.17;0.30;;;;;;;10.04;69.04;100103.39;125548;1104;22768;-58
2021/05/27 04:33:54;;;;;;;1.17;0.30;;;;;;;10.12;69.09;100106.60;125566;1104;22803;-56
2021/05/27 04:36:24;;;;;;;1.30;0.30;;;;;;;10.19;69.03;100107.02;125545;1097;22949;-57
2021/05/27 04:38:53;;;;;;;;;;;;;;;10.27;69.17;100110.96;125748;1100;26234;-57
2021/05/27 04:41:23;;;;;;;2.00;0.30;;;;;;;10.35;68.97;100100.18;125438;1104;24360;-60
2021/05/27 04:43:54;;;;;;;;;;;;;;;10.42;68.80;100095.00;125574;1096;25964;-62
2021/05/27 04:46:23;;;;;;;;;;;;;;;10.50;68.96;100104.52;125626;1104;23812;-62
2021/05/27 04:48:52;;;;;;;1.37;0.37;;;;;;;10.56;69.05;100107.40;125635;1104;21855;-60
2021/05/27 04:51:24;;;;;;;2.15;0.28;;;;;;;10.61;68.53;100117.91;125439;1099;22830;-61
2021/05/27 04:53:54;;;;;;;1.17;0.30;;;;;;;10.69;68.30;100119.05;125490;1097;26232;-57
2021/05/27 04:56:23;;;;;;;0.90;0.20;;;;;;;10.75;68.54;100119.91;125535;1104;22760;-59
2021/05/27 04:58:54;;;;;;;1.13;0.37;;;;;;;10.82;68.33;100118.75;125385;1104;23470;-57
2021/05/27 05:01:26;;;;;;;2.00;0.20;;;;;;;10.89;68.15;100119.11;125621;1104;22723;-58
2021/05/27 05:03:56;;;;;;;1.03;0.20;;;;;;;10.97;68.17;100117.45;125651;1097;22814;-57
2021/05/27 05:06:26;;;;;;;1.97;0.20;;;;;;;11.05;68.24;100126.22;125484;1104;24411;-58
2021/05/27 05:08:57;;;;;;;2.13;0.30;;;;;;;11.15;67.76;100130.44;125458;1097;27493;-60
2021/05/27 05:11:27;;;;;;;3.87;0.40;;;;;;;11.21;67.62;100131.28;125576;1097;25938;-58
2021/05/27 05:13:59;;;;;;;1.80;0.35;;;;;;;11.26;67.12;100134.14;125560;1104;22778;-58
2021/05/27 05:16:28;;;;;;;0.63;0.20;;;;;;;11.34;67.09;100124.09;125464;1104;22744;-58
2021/05/27 05:18:58;;;;;;;1.38;0.30;;;;;;;11.44;66.62;100123.98;125499;1104;22957;-59
2021/05/27 05:21:28;;;;;;;1.27;0.30;;;;;;;11.54;66.92;100131.75;126179;1085;22765;-59
2021/05/27 05:24:00;;;;;;;2.13;0.30;;;;;;;11.64;66.22;100119.16;125993;1104;22764;-57
2021/05/27 05:26:30;;;;;;;6.30;0.60;;;;;;;11.76;65.95;100123.66;126129;1100;22813;-59
2021/05/27 05:29:00;;;;;;;3.08;0.63;;;;;;;11.89;65.97;100128.90;125967;1104;22754;-58
2021/05/27 05:31:32;;;;;;;3.13;0.57;;;;;;;12.03;65.30;100125.24;125764;1100;27147;-59
2021/05/27 05:34:03;;;;;;;1.20;0.30;;;;;;;12.11;64.82;100132.72;125712;1104;22777;-59
2021/05/27 05:36:33;;;;;;;1.57;0.40;;;;;;;12.15;64.50;100136.06;125863;1104;22760;-58
2021/05/27 05:39:04;;;;;;;2.47;0.60;;;;;;;12.21;64.41;100135.38;125532;1104;22794;-58
2021/05/27 05:41:34;;;;;;;5.23;0.70;;;;;;;12.26;64.27;100137.45;125901;1100;22889;-59
2021/05/27 05:44:05;;;;;;;4.85;0.68;;;;;;;12.33;64.49;100151.02;125849;1104;22764;-58
2021/05/27 05:46:35;;;;;;;3.70;0.50;;;;;;;12.39;64.08;100152.62;125958;1099;26223;-59
2021/05/27 05:49:05;;;;;;;3.15;0.60;;;;;;;12.47;63.93;100158.53;125855;1104;22774;-60
2021/05/27 05:51:36;;;;;;;2.53;0.40;;;;;;;12.53;64.00;100153.76;126020;1104;23363;-59
2021/05/27 05:54:07;;;;;;;2.90;0.40;;;;;;;12.58;63.77;100153.80;125746;1104;22760;-60
2021/05/27 05:56:35;;;;;;;;;;;;;;;12.62;63.14;100159.95;125555;1099;27116;-61
2021/05/27 05:59:05;;;;;;;1.80;0.60;;;;;;;12.63;63.06;100149.52;125504;1100;24493;-63
2021/05/27 06:01:35;;;;;;;2.15;0.70;;;;;;;12.64;62.90;100153.88;125553;1104;22774;-58
2021/05/27 06:04:06;;;;;;;5.20;0.60;;;;;;;12.64;62.79;100159.48;125542;1104;22774;-59
2021/05/27 06:06:36;;;;;;;4.45;0.60;;;;;;;12.63;62.90;100157.92;125539;1100;26216;-58
2021/05/27 06:09:07;;;;;;;6.40;0.48;;;;;;;12.67;62.90;100161.27;125677;1104;22822;-59
2021/05/27 06:11:37;;;;;;;2.55;0.50;;;;;;;12.70;62.54;100161.06;125561;1104;22812;-59
2021/05/27 06:14:09;;;;;;;1.75;0.60;;;;;;;12.73;62.25;100164.89;125585;1099;22781;-59
2021/05/27 06:16:40;;;;;;;2.33;0.60;;;;;;;12.75;62.61;100165.16;125587;1104;22768;-60
2021/05/27 06:19:11;;;;;;;2.17;0.40;;;;;;;12.75;62.62;100163.13;125468;1097;22846;-59
2021/05/27 06:21:42;;;;;;;3.40;0.50;;;;;;;12.78;61.71;100167.76;125934;1098;22776;-61
2021/05/27 06:24:11;;;;;;;6.70;0.60;;;;;;;12.82;62.02;100173.91;125538;1099;25877;-60
2021/05/27 06:26:40;;;;;;;3.78;0.60;;;;;;;12.90;62.35;100171.41;125668;1104;23311;-59
2021/05/27 06:29:10;;;;;;;3.70;0.50;;;;;;;12.96;61.88;100169.42;125635;1104;22884;-59
2021/05/27 06:31:45;;;;;;;3.10;0.58;;;;;;;13.03;61.63;100171.00;125915;1099;22990;-61
2021/05/27 06:34:14;;;;;;;2.80;0.50;;;;;;;13.09;61.56;100163.44;125607;1104;22744;-58
2021/05/27 06:36:43;;;;;;;4.13;0.40;;;;;;;13.18;61.29;100161.20;125700;1105;23344;-60
2021/05/27 06:39:12;;;;;;;2.90;0.60;;;;;;;13.23;61.15;100162.52;125593;1097;28689;-59
2021/05/27 06:41:41;;;;;;;2.70;0.40;;;;;;;13.28;61.12;100156.19;125595;1104;22834;-58
2021/05/27 06:44:10;;;;;;;1.55;0.60;;;;;;;13.33;60.56;100155.45;125594;1104;22822;-60
2021/05/27 06:46:39;;;;;;;1.57;0.40;;;;;;;13.36;61.20;100152.43;125650;1104;22801;-59
2021/05/27 06:49:08;;;;;;;2.20;0.60;;;;;;;13.39;60.67;100159.82;125698;1099;24443;-59
2021/05/27 06:51:36;;;;;;;3.27;0.70;;;;;;;13.42;60.78;100158.06;125549;1100;23806;-60
2021/05/27 06:54:06;;;;;;;1.67;0.40;;;;;;;13.48;61.18;100161.66;125553;1104;22844;-59
2021/05/27 06:56:35;;;;;;;1.88;0.50;;;;;;;13.60;61.29;100158.42;125465;1098;27294;-65
2021/05/27 06:59:04;;;;;;;2.35;0.40;;;;;;;13.73;61.63;100164.37;125586;1105;22763;-58
2021/05/27 07:01:33;;;;;;;1.80;0.50;;;;;;;13.91;60.71;100165.96;125582;1098;26242;-59
2021/05/27 07:04:02;;;;;;;1.20;0.40;;;;;;;14.06;60.72;100166.55;125649;1104;22840;-59
2021/05/27 07:06:31;;;;;;;2.07;0.30;;;;;;;14.24;60.36;100162.50;125578;1099;26311;-61
2021/05/27 07:09:00;;;;;;;1.40;0.40;;;;;;;14.42;60.41;100168.45;125652;1099;27145;-58
2021/05/27 07:11:29;;;;;;;2.45;0.30;;;;;;;14.64;59.37;100181.78;125737;1105;22798;-60
2021/05/27 07:13:58;;;;;;;3.05;0.30;;;;;;;14.75;59.50;100172.61;125548;1104;24314;-60
2021/05/27 07:16:30;;;;;;;1.50;0.30;;;;;;;14.82;58.30;100170.05;125688;1100;23627;-59
2021/05/27 07:18:59;;;;;;;3.00;0.30;;;;;;;14.86;58.25;100172.59;125655;1099;22923;-59
2021/05/27 07:21:28;;;;;;;1.35;0.20;;;;;;;14.92;57.53;100171.33;125557;1104;22839;-60
2021/05/27 07:23:57;;;;;;;3.33;0.40;;;;;;;14.95;58.08;100175.94;125664;1104;22781;-60
2021/05/27 07:26:26;;;;;;;2.27;0.37;;;;;;;14.93;58.05;100172.88;125554;1104;23057;-59
2021/05/27 07:28:56;;;;;;;1.45;0.40;;;;;;;14.91;57.96;100183.86;125713;1100;27315;-59
2021/05/27 07:31:25;;;;;;;2.20;0.50;;;;;;;14.91;58.75;100181.05;125629;1098;28891;-60
2021/05/27 07:33:54;;;;;;;2.40;0.50;;;;;;;14.90;58.40;100181.54;125574;1104;22766;-60
2021/05/27 07:36:23;;;;;;;2.30;0.55;;;;;;;14.90;58.41;100181.54;125564;1099;26378;-59
2021/05/27 07:38:52;;;;;;;3.50;0.60;;;;;;;14.83;58.76;100188.46;125657;1104;22754;-58
2021/05/27 07:41:21;;;;;;;2.15;0.60;;;;;;;14.82;58.65;100177.70;125701;1104;22754;-60
2021/05/27 07:43:52;;;;;;;3.65;0.70;;;;;;;14.84;58.97;100175.92;125634;1104;22824;-59
2021/05/27 07:46:21;;;;;;;2.70;0.60;;;;;;;14.85;58.85;100179.52;125600;1099;27326;-60
2021/05/27 07:48:50;;;;;;;4.27;0.60;;;;;;;14.89;59.03;100168.78;125597;1104;22803;-58
2021/05/27 07:51:21;;;;;;;3.53;0.73;;;;;;;15.00;58.97;100175.16;125751;1104;22938;-57
2021/05/27 07:53:50;;;;;;;2.90;0.70;;;;;;;15.03;58.37;100174.15;125716;1104;22990;-60
2021/05/27 07:56:19;;;;;;;4.05;0.70;;;;;;;15.05;58.72;100177.22;125723;1104;22732;-59
2021/05/27 07:58:51;;;;;;;0.90;0.30;;;;;;;15.16;58.59;100177.22;125699;1099;27215;-61
2021/05/27 08:01:20;;;;;;;2.95;0.70;;;;;;;15.32;58.64;100179.25;125767;1104;22758;-60
2021/05/27 08:03:50;;;;;;;2.35;0.88;;;;;;;15.51;58.71;100176.69;125573;1100;25766;-59
2021/05/27 08:06:21;;;;;;;2.73;0.47;;;;;;;15.68;58.37;100168.20;125559;1105;22920;-59
2021/05/27 08:08:51;;;;;;;3.75;0.50;;;;;;;15.77;57.91;100165.09;125671;1104;22784;-59
2021/05/27 08:11:21;;;;;;;3.25;0.68;;;;;;;15.78;57.63;100175.08;125560;1104;22838;-60
2021/05/27 08:13:51;;;;;;;0.88;0.38;;;;;;;15.77;57.64;100162.27;125721;1104;22784;-58
2021/05/27 08:16:22;;;;;;;2.30;0.50;;;;;;;15.80;57.45;100173.29;125574;1099;26280;-59
2021/05/27 08:18:52;;;;;;;2.20;0.50;;;;;;;15.88;57.81;100168.65;125628;1104;22742;-59
2021/05/27 08:21:22;;;;;;;2.08;0.40;;;;;;;16.02;57.40;100170.38;125563;1100;26219;-60
2021/05/27 08:23:52;;;;;;;1.40;0.40;;;;;;;16.16;56.22;100168.52;125560;1099;22774;-61
2021/05/27 08:26:22;;;;;;;2.28;0.45;;;;;;;16.14;56.14;100176.72;125553;1104;22756;-59
2021/05/27 08:28:53;;;;;;;3.30;0.50;;;;;;;16.07;55.87;100183.68;125581;1099;27180;-59
2021/05/27 08:31:23;;;;;;;2.30;0.30;;;;;;;15.95;55.16;100176.54;125658;1104;24457;-62
2021/05/27 08:33:54;;;;;;;2.00;0.50;;;;;;;15.82;54.82;100181.20;125626;1104;22751;-61
2021/05/27 08:36:24;;;;;;;1.40;0.30;;;;;;;15.65;54.80;100184.06;125567;1104;22783;-59
2021/05/27 08:38:54;;;;;;;1.18;0.25;;;;;;;15.53;55.31;100193.82;125612;1099;27356;-59
2021/05/27 08:41:25;;;;;;;6.55;0.40;;;;;;;15.41;54.75;100190.21;125681;1099;27310;-60
2021/05/27 08:43:55;;;;;;;4.40;0.40;;;;;;;15.33;54.75;100194.83;125697;1099;27404;-59
2021/05/27 08:46:25;;;;;;;;;;;;;;;15.28;54.62;100195.61;125543;1104;24129;-59
2021/05/27 08:48:55;;;;;;;2.03;0.30;;;;;;;15.22;54.87;100197.67;125737;1104;21938;-59
2021/05/27 08:51:29;;;;;;;1.68;0.40;;;;;;;15.19;54.81;100195.86;125533;1104;24053;-60
2021/05/27 08:53:59;;;;;;;0.77;0.30;;;;;;;15.31;55.08;100196.64;125579;1098;27499;-59
2021/05/27 08:56:39;;;;;;;2.57;0.40;;;;;;;15.52;55.36;100186.64;125569;1104;22790;-60
2021/05/27 08:59:09;;;;;;;4.30;0.40;;;;;;;15.74;54.84;100180.21;125522;1104;22810;-59
2021/05/27 09:02:04;;;;;;;4.60;0.60;;;;;;;15.86;53.61;100187.33;125707;1100;26677;-62
2021/05/27 09:04:34;;;;;;;3.50;0.50;;;;;;;15.90;52.81;100194.23;125645;1104;22750;-60
2021/05/27 09:07:05;;;;;;;1.50;0.30;;;;;;;15.86;53.23;100193.73;125704;1100;22747;-59
2021/05/27 09:09:53;;;;;;;0.90;0.25;;;;;;;15.82;52.53;100198.09;125726;1105;24864;-59
2021/05/27 09:12:29;;;;;;;2.10;0.45;;;;;;;15.78;52.24;100200.41;125686;1104;24180;-59
2021/05/27 09:14:59;;;;;;;2.25;0.30;;;;;;;15.73;52.08;100196.33;125681;1098;25878;-60
2021/05/27 09:17:44;;;;;;;3.30;0.40;;;;;;;15.76;52.94;100195.31;125608;1099;26339;-60
2021/05/27 09:20:25;;;;;;;1.60;0.30;;;;;;;15.90;53.32;100196.27;125581;1104;22820;-59
2021/05/27 09:23:11;;;;;;;1.15;0.30;;;;;;;16.02;52.13;100190.09;125624;1099;22836;-60
2021/05/27 09:25:43;;;;;;;2.85;0.40;;;;;;;16.07;51.76;100202.63;125688;1099;27255;-60
2021/05/27 09:28:20;;;;;;;4.05;0.60;;;;;;;16.03;50.25;100197.27;126020;1105;22804;-60
2021/05/27 09:30:53;;;;;;;3.90;0.47;;;;;;;15.96;50.19;100206.24;125767;1104;22826;-67
2021/05/27 09:33:31;;;;;;;1.40;0.25;;;;;;;15.93;50.76;100198.07;125878;1104;22763;-67
2021/05/27 09:36:06;;;;;;;1.70;0.27;;;;;;;15.89;50.82;100201.13;125523;1104;22793;-65
2021/05/27 09:38:37;;;;;;;2.45;0.40;;;;;;;15.89;49.73;100206.77;125728;1104;22774;-67
2021/05/27 09:41:19;;;;;;;2.45;0.45;;;;;;;15.93;50.36;100200.89;125574;1104;24559;-66
2021/05/27 09:43:52;;;;;;;3.60;0.55;;;;;;;15.96;49.79;100202.66;125565;1100;22848;-67
2021/05/27 09:46:23;;;;;;;1.40;0.20;;;;;;;16.01;50.15;100204.69;125698;1104;22768;-60
2021/05/27 09:49:06;;;;;;;1.33;0.30;;;;;;;16.05;49.42;100200.33;125602;1104;22763;-62
2021/05/27 09:51:37;;;;;;;2.10;0.30;;;;;;;16.11;50.04;100211.56;125633;1104;23253;-63
2021/05/27 09:54:07;;;;;;;2.60;0.30;;;;;;;16.10;49.39;100202.34;125605;1104;22776;-59
2021/05/27 09:56:39;;;;;;;1.10;0.30;;;;;;;16.08;49.12;100210.55;125641;1105;23438;-61
2021/05/27 09:59:10;;;;;;;3.00;0.30;;;;;;;16.07;49.10;100216.70;125588;1099;27149;-60
2021/05/27 10:01:49;;;;;;;1.05;0.30;;;;;;;16.05;48.62;100220.05;125586;1104;23290;-62
2021/05/27 10:04:19;;;;;;;1.97;0.40;;;;;;;16.03;47.94;100221.84;125509;1104;23366;-61
2021/05/27 10:06:49;;;;;;;2.45;0.25;;;;;;;15.97;48.08;100221.84;125527;1099;27287;-61
2021/05/27 10:09:20;;;;;;;0.30;0.10;;;;;;;15.92;48.30;100227.50;125575;1104;22764;-60
2021/05/27 10:11:50;;;;;;;2.60;0.30;;;;;;;15.90;48.26;100227.25;125653;1100;25979;-62
2021/05/27 10:14:26;;;;;;;1.30;0.30;;;;;;;15.85;48.20;100225.23;125595;1104;22746;-60
2021/05/27 10:16:56;;;;;;;2.60;0.20;;;;;;;15.83;48.70;100227.80;125748;1100;22781;-61
2021/05/27 10:19:27;;;;;;;2.40;0.20;;;;;;;15.80;48.26;100223.18;125787;1105;22888;-61
2021/05/27 10:21:57;;;;;;;4.80;0.30;;;;;;;15.78;48.49;100225.75;125909;1104;22839;-61
2021/05/27 10:24:26;;;;;;;;;;;;;;;15.80;48.02;100226.00;125600;1104;22751;-62
2021/05/27 10:26:59;;;;;;;2.07;0.30;;;;;;;15.81;48.66;100225.47;125568;1104;24295;-60
2021/05/27 10:29:31;;;;;;;4.40;0.30;;;;;;;15.89;48.89;100225.73;126052;1104;22788;-60
2021/05/27 10:32:05;;;;;;;0.95;0.20;;;;;;;15.97;48.07;100229.54;125622;1104;22763;-62
2021/05/27 10:34:46;;;;;;;2.00;0.30;;;;;;;16.05;48.27;100220.05;125734;1104;22835;-62
2021/05/27 10:37:46;;;;;;;1.07;0.30;;;;;;;16.12;48.09;100225.13;125723;1104;22834;-60
2021/05/27 10:40:37;;;;;;;0.93;0.30;;;;;;;16.20;47.78;100226.11;125544;1099;26210;-61
2021/05/27 10:43:16;;;;;;;0.65;0.20;;;;;;;16.29;48.40;100227.09;125251;1107;22766;-60
2021/05/27 10:46:18;;;;;;;2.77;0.30;;;;;;;16.39;48.54;100223.47;125171;1107;22785;-60
2021/05/27 10:48:50;;;;;;;3.37;0.30;;;;;;;16.56;48.24;100221.36;125203;1107;24723;-61
2021/05/27 10:51:27;;;;;;;1.25;0.50;;;;;;;16.62;47.81;100224.91;125248;1108;22777;-59
2021/05/27 10:53:59;;;;;;;3.40;0.30;;;;;;;16.67;48.20;100220.53;125209;1108;22848;-60
2021/05/27 10:56:44;;;;;;;3.25;0.30;;;;;;;16.69;47.63;100226.41;125369;1107;22766;-60
2021/05/27 10:59:18;;;;;;;0.55;0.20;;;;;;;16.74;47.56;100226.38;125243;1108;22782;-60
2021/05/27 11:01:59;;;;;;;3.70;0.40;;;;;;;16.82;48.06;100224.52;125159;1107;22790;-61
2021/05/27 11:04:41;;;;;;;1.30;0.20;;;;;;;16.93;47.36;100234.97;125463;1107;22874;-62
2021/05/27 11:07:20;;;;;;;1.43;0.20;;;;;;;16.98;46.98;100220.84;125237;1100;26264;-61
2021/05/27 11:09:52;;;;;;;1.90;0.30;;;;;;;17.02;47.23;100223.38;125344;1107;22793;-60
2021/05/27 11:12:30;;;;;;;0.60;0.20;;;;;;;17.12;47.45;100226.63;125242;1107;22847;-60
2021/05/27 11:15:20;;;;;;;1.85;0.20;;;;;;;17.22;46.77;100230.64;125249;1100;22780;-60
2021/05/27 11:18:04;;;;;;;3.67;0.30;;;;;;;17.31;47.18;100228.27;125445;1102;23084;-59
2021/05/27 11:20:36;;;;;;;0.85;0.20;;;;;;;17.39;46.96;100222.81;125296;1104;22922;-60
2021/05/27 11:23:24;;;;;;;1.45;0.20;;;;;;;17.45;46.85;100223.52;125617;1105;22777;-60
2021/05/27 11:26:19;;;;;;;1.00;0.30;;;;;;;17.47;46.11;100224.53;125664;1104;22856;-61
2021/05/27 11:29:13;;;;;;;1.50;0.25;;;;;;;17.45;46.22;100226.34;125637;1104;22750;-61
2021/05/27 11:31:49;;;;;;;1.05;0.25;;;;;;;17.44;46.24;100227.65;125582;1100;22742;-61
2021/05/27 11:34:19;;;;;;;1.20;0.30;;;;;;;17.45;46.27;100224.30;125585;1104;22754;-61
2021/05/27 11:37:01;;;;;;;2.10;0.20;;;;;;;17.42;46.04;100222.52;125782;1104;22777;-62
2021/05/27 11:39:32;;;;;;;1.10;0.30;;;;;;;17.44;46.37;100219.92;125657;1104;24173;-60
2021/05/27 11:42:09;;;;;;;2.17;0.63;;;;;;;17.48;46.21;100222.48;125626;1097;26066;-61
2021/05/27 11:44:54;;;;;;;2.20;0.50;;;;;;;17.52;45.98;100223.75;125616;1104;22779;-61
2021/05/27 11:47:27;;;;;;;2.40;0.30;;;;;;;17.55;45.96;100222.69;125571;1099;26063;-60
2021/05/27 11:50:06;;;;;;;2.35;0.40;;;;;;;17.55;46.04;100221.91;126282;1086;22758;-56